Flight Track Log - Related Links

Times and Time Zones

All times are in EDT time to prevent confusion due to time zone crossing. See the N545RW flight status page for this flight to view local times or setup timezone preferences in your user account.

Time Position Orientation Groundspeed Altitude Reporting Facility
EDT Latitude Longitude Course Direction KTS MPH feet Rate Location/Type
Sun 03:33:26 PM 39.5167 -104.7833 123° Southeast 223 257 8,300  Level Denver TRACON
Sun 03:34:25 PM 39.5281 -104.7292 75° East 223 257 10,200 1,820 Climbing Denver Center
Sun 03:35:28 PM 39.5517 -104.6317 73° East 230 265 12,000 864 Climbing Denver Center
Sun 03:36:30 PM 39.5764 -104.5178 74° East 311 358 12,000  Level Denver Center
Sun 03:37:32 PM 39.6011 -104.4061 74° East 321 369 12,000 48 Level Denver Center
Sun 03:38:34 PM 39.6278 -104.2839 74° East 328 377 12,100 774 Climbing Denver Center
Sun 03:39:36 PM 39.6494 -104.1731 76° East 321 369 13,600 1,306 Climbing Denver Center
Sun 03:40:38 PM 39.6333 -104.0797 103° East 316 364 14,800 1,452 Climbing Denver Center
Sun 03:41:40 PM 39.6125 -103.9431 101° East 315 362 16,600 1,645 Climbing Denver Center
Sun 03:42:42 PM 39.5964 -103.8272 100° East 329 379 18,200 1,500 Climbing Denver Center
Sun 03:43:44 PM 39.5778 -103.7131 102° East 316 364 19,700 1,355 Climbing Denver Center
Sun 03:44:46 PM 39.5603 -103.6017 101° East 313 360 21,000 1,113 Climbing Denver Center
Sun 03:45:48 PM 39.5428 -103.4853 101° East 327 376 22,000 919 Climbing Denver Center
Sun 03:46:50 PM 39.5269 -103.3917 102° East 334 384 22,900 1,113 Climbing Denver Center
Sun 03:47:52 PM 39.5003 -103.2225 101° East 341 392 24,300 1,161 Climbing Denver Center
Sun 03:48:54 PM 39.4808 -103.0997 102° East 347 399 25,300 1,016 Climbing Denver Center
Sun 03:49:56 PM 39.4608 -102.9756 102° East 351 404 26,400 1,016 Climbing Denver Center
Sun 03:50:58 PM 39.4417 -102.8522 101° East 351 404 27,400 919 Climbing Denver Center
Sun 03:52:00 PM 39.4211 -102.7328 103° East 345 397 28,300 871 Climbing Denver Center
Sun 03:53:02 PM 39.4014 -102.6119 102° East 344 396 29,200 919 Climbing Denver Center
Sun 03:54:04 PM 39.3772 -102.4667 102° East 345 397 30,200 823 Climbing Denver Center
Sun 03:55:06 PM 39.3597 -102.3567 102° East 346 398 30,900 774 Climbing Denver Center
Sun 03:56:08 PM 39.3372 -102.2267 103° East 346 398 31,800 726 Climbing Denver Center
Sun 03:57:10 PM 39.3139 -102.0886 102° East 351 404 32,400 581 Climbing Denver Center
Sun 03:58:12 PM 39.2925 -101.9678 103° East 357 411 33,000 581 Climbing Denver Center
Sun 03:59:14 PM 39.2689 -101.8253 102° East 361 415 33,600 532 Climbing Denver Center
Sun 04:00:16 PM 39.2464 -101.6969 103° East 366 421 34,100 485 Climbing Denver Center
Sun 04:01:30 PM 39.2250 -101.5758 103° East 365 420 34,700 397 Climbing Denver Center
Sun 04:02:32 PM 39.1964 -101.4122 103° East 367 422 35,000 145 Climbing Denver Center
Sun 04:03:34 PM 39.1731 -101.2803 103° East 387 445 35,000  Level Denver Center
Sun 04:04:36 PM 39.1456 -101.1258 103° East 396 456 35,000  Level Denver Center
Sun 04:05:38 PM 39.1217 -100.9914 103° East 400 460 35,000  Level Denver Center
Sun 04:06:40 PM 39.0922 -100.8300 103° East 414 476 35,000  Level Denver Center
Sun 04:07:41 PM 39.0667 -100.6892 103° East 416 479 35,000  Level Denver Center
Sun 04:08:43 PM 39.0378 -100.5300 103° East 414 476 35,000  Level Denver Center
Sun 04:09:45 PM 39.0119 -100.3936 104° East 414 476 35,000  Level Denver Center
Sun 04:15:18 PM 38.8594 -99.5953 104° East 411 473 35,000  Level Kansas City Center
Sun 04:16:00 PM 38.8487 -99.6507 104° East  Level FlightAware Approximate
Sun 04:16:19 PM 38.8367 -99.4742 104° East 409 471 35,000  Level Kansas City Center
Sun 04:17:22 PM 38.8031 -99.3064 104° East 409 471 35,000  Level Kansas City Center
Sun 04:18:22 PM 38.7767 -99.1656 103° East 408 470 35,000  Level Kansas City Center
Sun 04:19:26 PM 38.7489 -99.0264 104° East 406 467 35,000  Level Kansas City Center
Sun 04:20:26 PM 38.7200 -98.8856 105° East 406 467 35,000  Level Kansas City Center
Sun 04:21:31 PM 38.6914 -98.7442 104° East 409 471 35,000  Level Kansas City Center
Sun 04:22:31 PM 38.6636 -98.6028 104° East 410 472 35,000  Level Kansas City Center
Sun 04:23:00 PM 38.6728 -98.7576 104° East  Level FlightAware Approximate
Sun 04:23:35 PM 38.6283 -98.4328 105° East 410 472 35,000  Level Kansas City Center
Sun 04:24:00 PM 38.6472 -98.6304 104° East  Level FlightAware Approximate
Sun 04:24:35 PM 38.6000 -98.2922 104° East 410 472 35,000  Level Kansas City Center
Sun 04:25:00 PM 38.6215 -98.5032 104° East  Level FlightAware Approximate
Sun 04:25:39 PM 38.5714 -98.1508 104° East 410 472 35,000  Level Kansas City Center
Sun 04:26:39 PM 38.5417 -98.0103 105° East 410 472 35,000  Level Kansas City Center
Sun 04:27:41 PM 38.5122 -97.8672 105° East 411 473 35,000  Level Kansas City Center
Sun 04:28:44 PM 38.4822 -97.7253 105° East 411 473 35,000  Level Kansas City Center
Sun 04:29:46 PM 38.4511 -97.5819 105° East 412 474 35,000  Level Kansas City Center
Sun 04:30:47 PM 38.4144 -97.4100 105° East 414 476 35,000 192 Level Kansas City Center
Sun 04:31:51 PM 38.3839 -97.2675 105° East 416 479 35,400 581 Climbing Kansas City Center
Sun 04:32:51 PM 38.3542 -97.1300 105° East 406 467 36,200 823 Climbing Kansas City Center
Sun 04:33:55 PM 38.3267 -97.0011 105° East 382 440 37,100 672 Climbing Kansas City Center
Sun 04:34:56 PM 38.2986 -96.8761 106° East 371 427 37,600 484 Climbing Kansas City Center
Sun 04:35:59 PM 38.2708 -96.7517 106° East 368 423 38,100 435 Climbing Kansas City Center
Sun 04:37:00 PM 38.2433 -96.6267 106° East 368 423 38,500 387 Climbing Kansas City Center
Sun 04:38:03 PM 38.2094 -96.4767 106° East 368 423 38,900 339 Climbing Kansas City Center
Sun 04:39:04 PM 38.1819 -96.3500 105° East 369 425 39,200 295 Climbing Kansas City Center
Sun 04:40:05 PM 38.1536 -96.2250 106° East 369 425 39,500 336 Climbing Kansas City Center
Sun 04:41:09 PM 38.1203 -96.0831 107° East 370 426 39,900 336 Climbing Kansas City Center
Sun 04:42:10 PM 38.0942 -95.9631 105° East 369 425 40,200 336 Climbing Kansas City Center
Sun 04:43:14 PM 38.0622 -95.8236 106° East 370 426 40,600 336 Climbing Kansas City Center
Sun 04:44:15 PM 38.0353 -95.7061 106° East 367 422 40,900 198 Climbing Kansas City Center
Sun 04:45:15 PM 38.0069 -95.5878 107° East 367 422 41,000 48 Climbing Kansas City Center
Sun 04:46:19 PM 37.9744 -95.4472 106° East 370 426 41,000  Level Kansas City Center
Sun 04:47:20 PM 37.9461 -95.3269 107° East 373 429 41,000  Level Kansas City Center
Sun 04:48:23 PM 37.9153 -95.1942 106° East 375 432 41,000  Level Kansas City Center
Sun 04:49:24 PM 37.8825 -95.0603 107° East 380 437 41,000  Level Kansas City Center
Sun 04:50:28 PM 37.8475 -94.9136 107° East 382 440 41,000  Level Kansas City Center
Sun 04:51:28 PM 37.8178 -94.7892 107° East 385 443 41,000  Level Kansas City Center
Sun 04:52:32 PM 37.7825 -94.6411 107° East 389 448 41,000  Level Kansas City Center
Sun 04:53:34 PM 37.7533 -94.5158 106° East 389 448 41,000  Level Kansas City Center
Sun 04:54:34 PM 37.7181 -94.3794 108° East 389 448 41,000  Level Kansas City Center
Sun 04:55:38 PM 37.6858 -94.2478 107° East 390 449 41,000  Level Kansas City Center
Sun 04:56:39 PM 37.6542 -94.1175 107° East 390 449 41,000  Level Kansas City Center
Sun 04:57:40 PM 37.6153 -93.9600 107° East 390 449 41,000  Level Kansas City Center
Sun 04:58:44 PM 37.5825 -93.8292 108° East 390 449 41,000  Level Kansas City Center
Sun 04:59:45 PM 37.5500 -93.6983 107° East 390 449 41,000  Level Kansas City Center
Sun 05:00:48 PM 37.5175 -93.5681 107° East 390 449 41,000  Level Kansas City Center
Sun 05:01:48 PM 37.4847 -93.4383 108° East 390 449 41,000  Level Kansas City Center
Sun 05:02:53 PM 37.4514 -93.3086 108° East 390 449 41,000  Level Kansas City Center
Sun 05:03:54 PM 37.4119 -93.1536 108° East 390 449 41,000  Level Kansas City Center
Sun 05:04:55 PM 37.3756 -93.0233 109° East 391 450 41,000  Level Kansas City Center
Sun 05:05:59 PM 37.3447 -92.8983 107° East 384 442 41,000  Level Kansas City Center
Sun 05:07:00 PM 37.3108 -92.7711 108° East 384 442 41,000  Level Kansas City Center
Sun 05:08:01 PM 37.2781 -92.6428 108° East 384 442 41,000  Level Kansas City Center
Sun 05:09:05 PM 37.2439 -92.5158 109° East 384 442 41,000  Level Kansas City Center
Sun 05:10:06 PM 37.2036 -92.3631 108° East 384 442 41,000  Level Kansas City Center
Sun 05:11:07 PM 37.1697 -92.2361 108° East 384 442 41,000  Level Kansas City Center
Sun 05:12:10 PM 37.1358 -92.1089 108° East 384 442 41,000  Level Kansas City Center
Sun 05:13:11 PM 37.1019 -91.9822 109° East 384 442 41,000  Level Kansas City Center
Sun 05:14:13 PM 37.0664 -91.8525 109° East 387 445 41,000  Level Kansas City Center
Sun 05:15:16 PM 37.0328 -91.7244 108° East 387 445 41,000  Level Kansas City Center
Sun 05:16:18 PM 36.9900 -91.5714 109° East 387 445 41,000  Level Kansas City Center
Sun 05:17:20 PM 36.9564 -91.4433 108° East 387 445 41,000  Level Kansas City Center
Sun 05:18:21 PM 36.9217 -91.3161 109° East 387 445 41,000  Level Kansas City Center
Sun 05:19:24 PM 36.8861 -91.1897 109° East 387 445 41,000  Level Kansas City Center
Sun 05:20:12 PM 36.8594 -91.0892 108° East 387 445 41,000  Level Memphis Center
Sun 05:21:15 PM 36.8231 -90.9628 110° East 387 445 41,000  Level Memphis Center
Sun 05:22:17 PM 36.7806 -90.8111 109° East 387 445 41,000  Level Memphis Center
Sun 05:23:19 PM 36.7456 -90.6839 109° East 387 445 41,000  Level Memphis Center
Sun 05:24:21 PM 36.7086 -90.5578 110° East 387 445 41,000  Level Memphis Center
Sun 05:25:23 PM 36.6725 -90.4311 110° East 387 445 41,000  Level Memphis Center
Sun 05:26:25 PM 36.6367 -90.3042 109° East 387 445 41,000  Level Memphis Center
Sun 05:27:27 PM 36.5997 -90.1767 110° East 388 447 41,000  Level Memphis Center
Sun 05:28:29 PM 36.5553 -90.0256 110° East 388 447 41,000  Level Memphis Center
Sun 05:29:31 PM 36.5194 -89.8983 109° East 388 447 41,000  Level Memphis Center
Sun 05:30:33 PM 36.4825 -89.7731 110° East 388 447 41,000  Level Memphis Center
Sun 05:31:35 PM 36.4447 -89.6453 110° East 389 448 41,000  Level Memphis Center
Sun 05:32:37 PM 36.4078 -89.5197 110° East 389 448 41,000  Level Memphis Center
Sun 05:33:40 PM 36.3683 -89.3861 110° East 389 448 41,000  Level Memphis Center
Sun 05:34:42 PM 36.3308 -89.2611 110° East 389 448 41,000  Level Memphis Center
Sun 05:35:44 PM 36.2914 -89.1272 110° East 390 449 41,000  Level Memphis Center
Sun 05:36:46 PM 36.2550 -89.0039 110° East 388 447 41,000  Level Memphis Center
Sun 05:37:48 PM 36.2175 -88.8803 111° Southeast 387 445 41,000  Level Memphis Center
Sun 05:38:50 PM 36.1719 -88.7319 111° Southeast 387 445 41,000  Level Memphis Center
Sun 05:39:52 PM 36.1364 -88.6100 110° East 382 440 41,000 -97 Level Memphis Center
Sun 05:40:54 PM 36.0972 -88.4867 111° Southeast 382 440 40,800 -339 Descending Memphis Center
Sun 05:41:56 PM 36.0589 -88.3611 111° Southeast 387 445 40,300 -435 Descending Memphis Center
Sun 05:42:58 PM 36.0192 -88.2325 111° Southeast 395 455 39,900 -532 Descending Memphis Center
Sun 05:44:00 PM 35.9736 -88.0806 110° East 406 467 39,200 -774 Descending Memphis Center
Sun 05:45:02 PM 35.9314 -87.9458 111° Southeast 414 476 38,300 -576 Descending Memphis Center
Sun 05:46:05 PM 35.8864 -87.8050 111° Southeast 431 496 38,000 -768 Descending Memphis Center
Sun 05:47:07 PM 35.8425 -87.6653 111° Southeast 432 497 36,700 -1,306 Descending Memphis Center
Sun 05:48:09 PM 35.7961 -87.5217 112° Southeast 443 510 35,300 -823 Descending Memphis Center
Sun 05:49:11 PM 35.7439 -87.3544 111° Southeast 446 513 35,000 -435 Descending Memphis Center
Sun 05:50:13 PM 35.7003 -87.2172 111° Southeast 436 502 34,400 -1,161 Descending Memphis Center
Sun 05:51:15 PM 35.6556 -87.0783 112° Southeast 436 502 32,600 -1,839 Descending Memphis Center
Sun 05:52:17 PM 35.6097 -86.9367 112° Southeast 437 503 30,600 -1,839 Descending Memphis Center
Sun 05:53:19 PM 35.5642 -86.7964 112° Southeast 439 505 28,800 -1,742 Descending Memphis Center
Sun 05:54:21 PM 35.5192 -86.6567 112° Southeast 438 504 27,000 -1,742 Descending Memphis Center
Sun 05:55:23 PM 35.4736 -86.5186 112° Southeast 438 504 25,200 -1,935 Descending Memphis Center
Sun 05:56:25 PM 35.4219 -86.3606 112° Southeast 430 495 23,000 -1,984 Descending Memphis Center
Sun 05:57:27 PM 35.3808 -86.2325 111° Southeast 411 473 21,100 -1,935 Descending Memphis Center
Sun 05:58:29 PM 35.3378 -86.1053 113° Southeast 390 449 19,000 -1,887 Descending Memphis Center
Sun 05:59:31 PM 35.2983 -85.9889 113° Southeast 377 434 17,200 -1,839 Descending Memphis Center
Sun 06:00:33 PM 35.2611 -85.8769 112° Southeast 364 419 15,200 -1,887 Descending Memphis Center
Sun 06:01:35 PM 35.2244 -85.7650 112° Southeast 359 413 13,300 -1,872 Descending Memphis Center
Sun 06:02:38 PM 35.1883 -85.6572 112° Southeast 348 400 11,300 -1,536 Descending Memphis Center
Sun 06:03:40 PM 35.1453 -85.5328 113° Southeast 338 389 10,100 -1,548 Descending Memphis Center
Sun 06:04:42 PM 35.0953 -85.4492 126° Southeast 316 364 8,100 -2,613 Descending Memphis Center
Sun 06:05:44 PM 35.0414 -85.3711 130° Southeast 310 357 4,700 -2,758 Descending Memphis Center
Sun 06:06:46 PM 35.0136 -85.2906 113° Southeast 281 323 2,400 -1,452 Descending Memphis Center
Sun 06:07:48 PM 35.0008 -85.2311 105° East 232 267 1,700 -634 Descending Memphis Center
Sun 06:08:49 PM 35.0228 -85.1981 51° Northeast 181 208 1,100 -590 Descending Memphis Center
Sun 06:10:00 PM 35.0333 -85.2000 331° Northwest  Level FlightAware Approximate

Login

Don't have an account? Register now (free) for customized features, flight alerts, and more!